createdAt,value
2022-10-07T00:01:13.302Z,9.50
2022-10-07T00:05:24.996Z,9.47
2022-10-07T00:09:36.497Z,9.49
2022-10-07T00:13:52.722Z,9.35
2022-10-07T00:18:04.372Z,9.37
2022-10-07T00:22:16.072Z,9.25
2022-10-07T00:26:29.864Z,9.24
2022-10-07T00:30:41.488Z,9.20
2022-10-07T00:34:55.665Z,9.14
2022-10-07T00:39:13.760Z,9.13
2022-10-07T00:43:29.606Z,9.02
2022-10-07T00:47:45.831Z,9.04
2022-10-07T00:51:58.795Z,8.99
2022-10-07T00:56:11.158Z,9.01
2022-10-07T01:00:24.129Z,8.93
2022-10-07T01:04:36.545Z,8.91
2022-10-07T01:08:49.916Z,8.87
2022-10-07T01:13:07.493Z,8.92
2022-10-07T01:17:35.382Z,8.87
2022-10-07T01:22:04.842Z,8.85
2022-10-07T01:26:42.607Z,8.83
2022-10-07T01:30:58.907Z,8.81
2022-10-07T01:35:18.710Z,8.71
2022-10-07T01:39:38.268Z,8.68
2022-10-07T01:43:53.942Z,8.65
2022-10-07T01:48:05.598Z,8.67
2022-10-07T01:52:28.987Z,8.63
2022-10-07T01:57:06.066Z,8.65
2022-10-07T02:01:25.929Z,8.65
2022-10-07T02:06:02.605Z,8.64
2022-10-07T02:10:59.803Z,8.62
2022-10-07T02:15:21.431Z,8.56
2022-10-07T02:19:37.279Z,8.55
2022-10-07T02:23:49.965Z,8.56
2022-10-07T02:28:05.605Z,8.51
2022-10-07T02:32:23.143Z,8.52
2022-10-07T02:36:45.100Z,8.50
2022-10-07T02:41:31.310Z,8.45
2022-10-07T02:45:54.827Z,8.42
2022-10-07T02:50:11.843Z,8.43
2022-10-07T02:54:34.670Z,8.37
2022-10-07T02:58:47.772Z,8.35
2022-10-07T03:03:02.768Z,8.33
2022-10-07T03:07:36.219Z,8.28
2022-10-07T03:11:49.421Z,8.28
2022-10-07T03:16:04.110Z,8.27
2022-10-07T03:20:16.437Z,8.25
2022-10-07T03:24:29.054Z,8.23
2022-10-07T03:28:40.641Z,8.24
2022-10-07T03:32:52.283Z,8.24
2022-10-07T03:37:04.497Z,8.26
2022-10-07T03:41:19.110Z,8.28
2022-10-07T03:45:35.178Z,8.27
2022-10-07T03:49:47.080Z,8.33
2022-10-07T03:53:59.391Z,8.28
2022-10-07T03:58:16.700Z,8.27
2022-10-07T04:02:29.526Z,8.28
2022-10-07T04:06:43.410Z,8.32
2022-10-07T04:10:57.865Z,8.31
2022-10-07T04:15:13.826Z,8.32
2022-10-07T04:19:27.604Z,8.30
2022-10-07T04:23:41.403Z,8.28
2022-10-07T04:27:54.681Z,8.30
2022-10-07T04:32:09.329Z,8.29
2022-10-07T04:36:21.004Z,8.28
2022-10-07T04:40:49.967Z,8.28
2022-10-07T04:45:06.092Z,8.27
2022-10-07T04:49:18.062Z,8.31
2022-10-07T04:53:29.726Z,8.27
2022-10-07T04:57:42.093Z,8.31
2022-10-07T05:01:54.495Z,8.25
2022-10-07T05:06:08.479Z,8.26
2022-10-07T05:10:22.109Z,8.17
2022-10-07T05:14:34.637Z,8.08
2022-10-07T05:18:47.238Z,8.08
2022-10-07T05:23:00.322Z,8.03
2022-10-07T05:27:13.931Z,8.00
2022-10-07T05:31:26.313Z,7.99
2022-10-07T05:35:46.309Z,8.00
2022-10-07T05:39:58.278Z,8.02
2022-10-07T05:44:09.831Z,8.04
2022-10-07T05:48:21.777Z,8.03
2022-10-07T05:52:33.640Z,8.03
2022-10-07T05:56:45.463Z,8.06
2022-10-07T06:01:04.832Z,8.10
2022-10-07T06:05:18.902Z,8.18
2022-10-07T06:09:49.741Z,8.39
2022-10-07T06:14:03.974Z,8.64
2022-10-07T06:18:15.833Z,8.78
2022-10-07T06:22:28.505Z,8.95
2022-10-07T06:26:42.146Z,9.19
2022-10-07T06:30:54.650Z,9.46
2022-10-07T06:35:07.010Z,9.73
2022-10-07T06:39:18.655Z,9.98
2022-10-07T06:43:34.535Z,10.09
2022-10-07T06:47:51.445Z,10.19
2022-10-07T06:52:03.445Z,10.33
2022-10-07T06:56:16.111Z,10.45
2022-10-07T07:00:28.884Z,10.61
2022-10-07T07:04:42.202Z,10.76
2022-10-07T07:09:00.222Z,10.97
2022-10-07T07:13:12.870Z,11.48
2022-10-07T07:17:24.521Z,11.82
2022-10-07T07:21:38.227Z,12.04
2022-10-07T07:25:50.753Z,12.24
2022-10-07T07:30:03.563Z,12.47
2022-10-07T07:34:16.409Z,12.71
2022-10-07T07:38:29.567Z,13.31
2022-10-07T07:42:41.779Z,13.37
2022-10-07T07:46:53.499Z,13.65
2022-10-07T07:51:07.733Z,14.51
2022-10-07T07:55:20.975Z,16.02
2022-10-07T07:59:33.174Z,17.45
2022-10-07T08:03:47.963Z,18.45
2022-10-07T08:08:00.245Z,18.26
2022-10-07T08:12:14.535Z,17.56
2022-10-07T08:16:28.782Z,16.72
2022-10-07T08:20:42.158Z,16.00
2022-10-07T08:24:53.770Z,15.57
2022-10-07T08:29:07.244Z,15.70
2022-10-07T08:33:20.634Z,15.90
2022-10-07T08:37:32.206Z,16.38
2022-10-07T08:42:01.183Z,18.11
2022-10-07T08:46:17.230Z,19.72
2022-10-07T08:50:40.123Z,20.93
2022-10-07T08:54:52.937Z,21.88
2022-10-07T08:59:09.951Z,22.47
2022-10-07T09:03:36.225Z,23.52
2022-10-07T09:07:58.523Z,24.27
2022-10-07T09:12:21.156Z,23.79
2022-10-07T09:16:41.525Z,23.82
2022-10-07T09:20:56.892Z,23.09
2022-10-07T09:25:11.902Z,21.91
2022-10-07T09:29:28.126Z,20.86
2022-10-07T09:33:47.299Z,20.15
2022-10-07T09:38:09.466Z,19.52
2022-10-07T09:42:30.451Z,19.27
2022-10-07T09:46:47.473Z,18.94
2022-10-07T09:51:15.434Z,18.77
2022-10-07T09:55:40.097Z,18.60
2022-10-07T09:59:52.389Z,18.74
2022-10-07T10:04:07.007Z,18.93
2022-10-07T10:08:18.634Z,19.08
2022-10-07T10:12:40.652Z,18.97
2022-10-07T10:16:54.442Z,18.83
2022-10-07T10:21:22.318Z,19.15
2022-10-07T10:26:32.683Z,19.29
2022-10-07T10:30:56.548Z,19.36
2022-10-07T10:35:18.744Z,19.31
2022-10-07T10:39:59.650Z,19.50
2022-10-07T10:44:43.496Z,19.68
2022-10-07T10:49:10.899Z,19.89
2022-10-07T10:53:44.741Z,20.25
2022-10-07T10:58:12.131Z,20.83
2022-10-07T11:02:43.571Z,21.38
2022-10-07T11:07:02.578Z,21.91
2022-10-07T11:11:20.168Z,22.12
2022-10-07T11:15:41.489Z,22.39
2022-10-07T11:20:05.846Z,22.84
2022-10-07T11:24:26.683Z,23.30
2022-10-07T11:28:41.695Z,23.57
2022-10-07T11:33:08.238Z,23.71
2022-10-07T11:37:27.508Z,23.92
2022-10-07T11:41:50.166Z,23.96
2022-10-07T11:46:16.471Z,24.05
2022-10-07T11:50:33.092Z,24.15
2022-10-07T11:54:54.882Z,24.12
2022-10-07T11:59:07.472Z,24.14
2022-10-07T12:03:19.036Z,24.17
2022-10-07T12:07:43.128Z,23.99
2022-10-07T12:11:56.755Z,24.07
2022-10-07T12:16:23.726Z,23.84
2022-10-07T12:20:35.373Z,23.74
2022-10-07T12:25:25.242Z,23.62
2022-10-07T12:30:00.227Z,23.34
2022-10-07T12:34:22.444Z,22.98
2022-10-07T12:38:34.042Z,22.54
2022-10-07T12:42:53.203Z,22.33
2022-10-07T12:47:13.887Z,22.16
2022-10-07T12:51:36.542Z,22.20
2022-10-07T12:55:52.059Z,22.03
2022-10-07T13:00:18.320Z,21.93
2022-10-07T13:04:47.907Z,21.66
2022-10-07T13:09:37.717Z,21.32
2022-10-07T13:14:15.052Z,21.19
2022-10-07T13:18:40.400Z,20.97
2022-10-07T13:22:52.443Z,20.84
2022-10-07T13:27:08.667Z,20.81
2022-10-07T13:31:23.116Z,20.71
2022-10-07T13:35:39.697Z,20.68
2022-10-07T13:39:51.682Z,20.61
2022-10-07T13:44:05.832Z,20.53
2022-10-07T13:48:25.130Z,20.33
2022-10-07T13:52:44.676Z,20.33
2022-10-07T13:56:57.340Z,20.39
2022-10-07T14:01:09.211Z,20.42
2022-10-07T14:05:23.999Z,20.61
2022-10-07T14:09:42.950Z,20.68
2022-10-07T14:13:55.242Z,20.68
2022-10-07T14:18:12.138Z,20.80
2022-10-07T14:22:31.596Z,20.79
2022-10-07T14:26:44.243Z,20.58
2022-10-07T14:31:28.955Z,20.45
2022-10-07T14:35:44.610Z,20.47
2022-10-07T14:39:56.178Z,20.47
2022-10-07T14:44:10.025Z,20.48
2022-10-07T14:48:21.561Z,20.34
2022-10-07T14:52:44.879Z,20.16
2022-10-07T14:56:56.795Z,20.13
2022-10-07T15:01:08.467Z,20.13
2022-10-07T15:05:20.321Z,20.04
2022-10-07T15:09:32.020Z,19.85
2022-10-07T15:13:46.554Z,19.66
2022-10-07T15:17:58.244Z,19.47
2022-10-07T15:22:17.545Z,19.30
2022-10-07T15:26:29.610Z,19.20
2022-10-07T15:30:41.195Z,19.11
2022-10-07T15:34:54.162Z,19.18
2022-10-07T15:39:06.270Z,19.23
2022-10-07T15:43:17.877Z,19.20
2022-10-07T15:47:33.315Z,19.19
2022-10-07T15:51:46.648Z,19.21
2022-10-07T15:55:58.807Z,19.20
2022-10-07T16:00:11.021Z,19.03
2022-10-07T16:04:25.753Z,18.90
2022-10-07T16:08:37.347Z,18.73
2022-10-07T16:12:49.253Z,18.47
2022-10-07T16:17:01.080Z,18.38
2022-10-07T16:21:14.606Z,18.21
2022-10-07T16:25:26.164Z,18.05
2022-10-07T16:29:56.257Z,17.89
2022-10-07T16:34:09.653Z,17.83
2022-10-07T16:38:22.314Z,17.75
2022-10-07T16:42:34.056Z,17.73
2022-10-07T16:46:45.769Z,17.66
2022-10-07T16:50:58.179Z,17.59
2022-10-07T16:55:09.753Z,17.42
2022-10-07T16:59:24.336Z,17.33
2022-10-07T17:03:37.535Z,17.12
2022-10-07T17:07:50.302Z,16.94
2022-10-07T17:12:02.113Z,16.72
2022-10-07T17:16:16.314Z,16.61
2022-10-07T17:20:27.930Z,16.50
2022-10-07T17:24:39.736Z,16.42
2022-10-07T17:28:56.676Z,16.30
2022-10-07T17:33:08.344Z,16.21
2022-10-07T17:37:19.893Z,16.10
2022-10-07T17:41:33.807Z,15.96
2022-10-07T17:45:45.334Z,15.93
2022-10-07T17:49:56.893Z,15.80
2022-10-07T17:54:10.998Z,15.73
2022-10-07T17:58:22.734Z,15.66
2022-10-07T18:02:35.093Z,15.48
2022-10-07T18:06:47.034Z,15.39
2022-10-07T18:10:58.616Z,15.35
2022-10-07T18:15:19.581Z,15.18
2022-10-07T18:19:31.199Z,15.10
2022-10-07T18:23:42.886Z,15.11
2022-10-07T18:27:54.566Z,15.03
2022-10-07T18:32:06.889Z,15.00
2022-10-07T18:36:19.382Z,15.05
2022-10-07T18:40:30.949Z,14.98
2022-10-07T18:44:42.653Z,14.94
2022-10-07T18:48:54.225Z,14.90
2022-10-07T18:53:05.937Z,14.87
2022-10-07T18:57:17.694Z,14.83
2022-10-07T19:01:32.226Z,14.76
2022-10-07T19:05:43.891Z,14.71
2022-10-07T19:09:55.527Z,14.62
2022-10-07T19:14:07.101Z,14.59
2022-10-07T19:18:19.170Z,14.50
2022-10-07T19:22:30.746Z,14.43
2022-10-07T19:26:45.848Z,14.38
2022-10-07T19:30:59.040Z,14.32
2022-10-07T19:35:10.651Z,14.28
2022-10-07T19:39:22.358Z,14.29
2022-10-07T19:43:35.222Z,14.24
2022-10-07T19:47:47.772Z,14.20
2022-10-07T19:51:59.606Z,14.16
2022-10-07T19:56:15.783Z,14.12
2022-10-07T20:00:29.548Z,14.13
2022-10-07T20:04:41.467Z,14.05
2022-10-07T20:08:54.169Z,14.07
2022-10-07T20:13:05.713Z,13.99
2022-10-07T20:17:17.796Z,13.99
2022-10-07T20:21:30.301Z,13.95
2022-10-07T20:25:41.892Z,13.88
2022-10-07T20:29:59.261Z,13.84
2022-10-07T20:34:15.398Z,13.77
2022-10-07T20:38:26.941Z,13.75
2022-10-07T20:42:39.811Z,13.69
2022-10-07T20:46:53.788Z,13.64
2022-10-07T20:51:08.292Z,13.64
2022-10-07T20:55:20.018Z,13.61
2022-10-07T20:59:32.312Z,13.56
2022-10-07T21:03:43.882Z,13.52
2022-10-07T21:07:55.434Z,13.47
2022-10-07T21:12:09.241Z,13.43
2022-10-07T21:16:21.003Z,13.34
2022-10-07T21:20:32.601Z,13.33
2022-10-07T21:24:44.183Z,13.26
2022-10-07T21:28:55.849Z,13.16
2022-10-07T21:33:07.951Z,13.14
2022-10-07T21:37:19.703Z,13.09
2022-10-07T21:41:38.454Z,13.02
2022-10-07T21:45:50.189Z,12.93
2022-10-07T21:50:01.816Z,12.89
2022-10-07T21:54:14.303Z,12.92
2022-10-07T21:58:26.909Z,12.82
2022-10-07T22:02:38.821Z,12.79
2022-10-07T22:07:13.096Z,12.70
2022-10-07T22:11:24.525Z,12.72
2022-10-07T22:15:37.030Z,12.73
2022-10-07T22:19:49.338Z,12.73
2022-10-07T22:24:02.861Z,12.76
2022-10-07T22:28:14.366Z,12.85
2022-10-07T22:32:25.847Z,12.98
2022-10-07T22:36:37.337Z,13.09
2022-10-07T22:40:48.805Z,13.16
2022-10-07T22:45:00.295Z,13.29
2022-10-07T22:49:11.959Z,13.40
2022-10-07T22:53:23.949Z,13.46
2022-10-07T22:57:38.215Z,13.44
2022-10-07T23:01:49.766Z,13.50
2022-10-07T23:06:01.825Z,13.54
2022-10-07T23:10:13.493Z,13.56
2022-10-07T23:14:24.991Z,13.63
2022-10-07T23:18:36.593Z,13.66
2022-10-07T23:22:48.819Z,13.71
2022-10-07T23:27:01.285Z,13.68
2022-10-07T23:31:15.095Z,13.76
2022-10-07T23:35:26.617Z,13.75
2022-10-07T23:39:38.187Z,13.77
2022-10-07T23:43:54.576Z,13.80
2022-10-07T23:48:06.105Z,13.77
2022-10-07T23:52:17.562Z,13.86
2022-10-07T23:56:29.385Z,13.86
